Time;durP1;ratioP1;P1;durP2;ratioP2;P2;SDS_P1;SDS_P2;PMS_P1;PMS_P2;Temp;Humidity;BMP_temperature;BMP_pressure;BME280_temperature;BME280_humidity;BME280_pressure;Samples;Min_cycle;Max_cycle;Signal;HPM_P1;HPM_P2
2023/03/07 00:00:25;;;;;;;;;7.67;7.00;;;;;20.14;54.70;99519.20;110012;1266;22197;-38
2023/03/07 00:03:12;;;;;;;;;4.00;4.00;;;;;20.14;54.80;99512.92;110023;1253;20762;-38
2023/03/07 00:05:39;;;;;;;;;3.00;3.00;;;;;20.14;54.59;99511.17;110002;1266;18439;-39
2023/03/07 00:08:06;;;;;;;;;4.00;4.00;;;;;20.14;54.70;99506.48;110018;1250;18644;-39
2023/03/07 00:10:34;;;;;;;;;4.00;4.00;;;;;20.14;54.58;99507.58;110018;1250;19669;-39
2023/03/07 00:13:01;;;;;;;;;5.00;5.00;;;;;20.14;54.61;99505.27;110011;1250;18444;-39
2023/03/07 00:15:29;;;;;;;;;4.00;4.00;;;;;20.14;54.53;99504.64;110050;1266;20006;-39
2023/03/07 00:17:57;;;;;;;;;4.00;4.00;;;;;20.14;54.72;99502.51;110033;1266;19697;-39
2023/03/07 00:20:24;;;;;;;;;4.00;4.00;;;;;20.14;54.52;99499.96;110020;1266;22217;-42
2023/03/07 00:22:52;;;;;;;;;4.00;4.00;;;;;20.13;54.45;99501.85;110010;1266;18761;-39
2023/03/07 00:25:19;;;;;;;;;4.00;4.00;;;;;20.13;54.51;99499.50;110024;1266;20755;-39
2023/03/07 00:27:46;;;;;;;;;6.00;4.00;;;;;20.13;54.57;99500.59;110014;1250;18469;-40
2023/03/07 00:30:14;;;;;;;;;4.00;4.00;;;;;20.13;54.45;99493.17;110053;1266;20338;-39
2023/03/07 00:32:41;;;;;;;;;4.00;4.00;;;;;20.13;54.42;99492.10;110007;1250;22631;-39
2023/03/07 00:35:09;;;;;;;;;4.00;4.00;;;;;20.13;54.28;99491.59;110045;1266;18304;-39
2023/03/07 00:37:36;;;;;;;;;6.00;6.00;;;;;20.13;54.23;99491.84;110045;1250;19988;-39
2023/03/07 00:40:05;;;;;;;;;6.00;4.00;;;;;20.13;54.32;99491.38;110024;1266;20716;-39
2023/03/07 00:42:33;;;;;;;;;4.00;3.00;;;;;20.13;54.23;99489.66;110019;1266;20797;-39
2023/03/07 00:45:00;;;;;;;;;6.00;4.00;;;;;20.12;54.32;99487.45;110029;1266;20359;-39
2023/03/07 00:47:27;;;;;;;;;4.00;4.00;;;;;20.12;54.25;99490.70;110043;1266;21083;-38
2023/03/07 00:49:55;;;;;;;;;4.00;4.00;;;;;20.13;54.09;99488.08;110044;1266;20005;-39
2023/03/07 00:52:22;;;;;;;;;6.00;5.33;;;;;20.12;54.18;99484.60;110011;1266;18817;-39
2023/03/07 00:54:50;;;;;;;;;6.00;6.00;;;;;20.12;54.10;99484.35;110038;1266;19516;-39
2023/03/07 00:57:17;;;;;;;;;4.00;4.00;;;;;20.13;54.25;99483.02;110019;1250;18452;-38
2023/03/07 00:59:45;;;;;;;;;4.00;4.00;;;;;20.12;54.13;99480.59;110026;1266;19999;-38
2023/03/07 01:02:12;;;;;;;;;4.00;4.00;;;;;20.13;54.04;99477.23;110032;1266;19371;-39
2023/03/07 01:04:40;;;;;;;;;6.00;4.00;;;;;20.12;54.11;99475.23;109972;1266;22899;-39
2023/03/07 01:07:08;;;;;;;;;3.50;3.50;;;;;20.12;54.03;99474.27;109980;1266;22335;-39
2023/03/07 01:09:35;;;;;;;;;5.00;5.00;;;;;20.12;53.88;99473.14;109975;1266;21063;-39
2023/03/07 01:12:06;;;;;;;;;4.00;4.00;;;;;20.12;54.08;99472.42;109957;1266;18426;-39
2023/03/07 01:14:33;;;;;;;;;6.00;4.00;;;;;20.12;53.97;99467.07;109936;1250;22996;-39
2023/03/07 01:17:00;;;;;;;;;4.00;4.00;;;;;20.12;53.80;99466.82;109889;1266;20736;-39
2023/03/07 01:19:28;;;;;;;;;6.00;5.00;;;;;20.13;53.96;99465.48;109929;1266;18461;-39
2023/03/07 01:21:55;;;;;;;;;4.00;4.00;;;;;20.11;53.69;99460.59;109937;1260;18739;-39
2023/03/07 01:24:23;;;;;;;;;4.00;4.00;;;;;20.12;53.80;99460.88;110022;1254;21849;-39
2023/03/07 01:26:50;;;;;;;;;3.00;3.00;;;;;20.11;53.92;99461.45;109932;1266;18428;-39
2023/03/07 01:29:18;;;;;;;;;7.00;6.50;;;;;20.11;53.66;99460.78;109996;1266;19954;-39
2023/03/07 01:31:45;;;;;;;;;4.00;4.00;;;;;20.12;53.74;99461.25;110046;1253;20908;-39
2023/03/07 01:34:12;;;;;;;;;4.00;4.00;;;;;20.11;53.55;99457.11;110002;1266;18602;-39
2023/03/07 01:36:40;;;;;;;;;3.00;3.00;;;;;20.11;53.71;99450.31;110022;1266;20010;-39
2023/03/07 01:39:09;;;;;;;;;6.00;4.00;;;;;20.11;53.80;99447.39;110035;1266;19394;-39
2023/03/07 01:41:36;;;;;;;;;4.00;3.00;;;;;20.11;53.68;99445.55;110037;1266;22833;-39
2023/03/07 01:44:04;;;;;;;;;4.00;4.00;;;;;20.11;53.61;99445.38;110034;1266;20004;-39
2023/03/07 01:46:31;;;;;;;;;6.00;4.00;;;;;20.11;53.61;99444.48;110045;1266;21497;-39
2023/03/07 01:48:59;;;;;;;;;7.00;6.00;;;;;20.11;53.38;99444.51;110019;1266;19543;-40
2023/03/07 01:51:26;;;;;;;;;3.50;3.50;;;;;20.10;53.58;99443.83;110012;1266;19470;-39
2023/03/07 01:53:53;;;;;;;;;;;;;;;20.10;53.38;99439.73;110025;1266;22767;-39
2023/03/07 01:56:21;;;;;;;;;6.00;4.00;;;;;20.11;53.31;99441.63;110023;1251;19636;-39
2023/03/07 01:58:48;;;;;;;;;6.00;6.00;;;;;20.10;53.45;99433.74;110025;1266;20116;-40
2023/03/07 02:01:16;;;;;;;;;6.50;6.00;;;;;20.10;53.60;99434.80;110041;1266;21619;-40
2023/03/07 02:03:43;;;;;;;;;8.00;6.50;;;;;20.10;53.36;99431.90;110052;1250;18372;-39
2023/03/07 02:06:10;;;;;;;;;4.00;4.00;;;;;20.10;53.38;99432.59;110034;1253;18647;-39
2023/03/07 02:08:38;;;;;;;;;6.00;6.00;;;;;20.10;53.39;99432.23;110015;1254;20763;-39
2023/03/07 02:11:05;;;;;;;;;7.00;6.00;;;;;20.10;53.10;99431.78;110040;1266;18469;-39
2023/03/07 02:13:34;;;;;;;;;4.00;4.00;;;;;20.10;53.29;99433.95;110024;1254;22223;-39
2023/03/07 02:16:01;;;;;;;;;4.00;4.00;;;;;20.10;53.24;99433.61;110028;1254;22177;-39
2023/03/07 02:18:29;;;;;;;;;7.00;6.00;;;;;20.09;53.14;99432.52;110033;1266;18523;-39
2023/03/07 02:20:56;;;;;;;;;6.33;6.00;;;;;20.10;53.36;99429.94;110036;1266;18835;-40
2023/03/07 02:23:23;;;;;;;;;5.33;4.67;;;;;20.10;53.33;99427.08;110052;1266;19379;-40
2023/03/07 02:25:51;;;;;;;;;7.00;6.00;;;;;20.08;53.13;99419.96;110037;1258;23319;-38
2023/03/07 02:28:19;;;;;;;;;6.00;4.00;;;;;20.09;53.20;99420.98;110024;1250;18644;-38
2023/03/07 02:30:46;;;;;;;;;4.00;4.00;;;;;20.08;53.21;99421.59;110058;1266;22728;-40
2023/03/07 02:33:14;;;;;;;;;4.00;4.00;;;;;20.08;53.19;99415.98;110044;1266;19755;-39
2023/03/07 02:35:41;;;;;;;;;6.00;4.00;;;;;20.09;53.06;99420.09;110004;1266;22181;-39
2023/03/07 02:38:09;;;;;;;;;5.33;5.33;;;;;20.09;53.00;99415.02;110015;1266;20611;-39
2023/03/07 02:40:38;;;;;;;;;5.00;5.00;;;;;20.09;53.03;99411.42;110040;1250;20909;-39
2023/03/07 02:43:08;;;;;;;;;6.00;6.00;;;;;20.09;53.10;99406.33;110056;1258;23040;-38
2023/03/07 02:45:36;;;;;;;;;6.00;4.00;;;;;20.09;53.05;99402.73;110021;1266;22720;-38
2023/03/07 02:48:03;;;;;;;;;6.00;5.00;;;;;20.08;52.92;99401.17;110027;1266;20362;-39
2023/03/07 02:50:31;;;;;;;;;3.00;3.00;;;;;20.09;53.05;99396.75;110041;1266;22690;-38
2023/03/07 02:52:58;;;;;;;;;6.00;5.00;;;;;20.08;53.04;99398.30;110025;1266;21050;-39
2023/03/07 02:55:26;;;;;;;;;6.00;4.00;;;;;20.08;53.04;99394.65;110041;1254;20023;-37
2023/03/07 02:57:53;;;;;;;;;4.00;4.00;;;;;20.08;52.77;99394.32;110051;1250;19999;-40
2023/03/07 03:00:21;;;;;;;;;6.00;6.00;;;;;20.08;52.82;99395.02;110053;1250;20832;-38
2023/03/07 03:02:48;;;;;;;;;6.00;6.00;;;;;20.08;52.95;99393.06;110025;1250;18450;-38
2023/03/07 03:05:16;;;;;;;;;6.00;6.00;;;;;20.07;52.74;99388.42;110046;1252;20118;-38
2023/03/07 03:07:43;;;;;;;;;6.00;6.00;;;;;20.07;52.84;99385.48;110029;1250;20819;-38
2023/03/07 03:10:11;;;;;;;;;6.00;6.00;;;;;20.07;52.60;99381.18;110018;1266;19558;-39
2023/03/07 03:12:38;;;;;;;;;6.00;4.67;;;;;20.07;52.64;99378.63;110006;1266;20198;-39
2023/03/07 03:15:05;;;;;;;;;6.00;4.00;;;;;20.07;52.82;99377.63;110035;1266;20701;-38
2023/03/07 03:17:33;;;;;;;;;6.00;6.00;;;;;20.07;52.95;99373.60;110030;1266;18328;-39
2023/03/07 03:20:00;;;;;;;;;6.00;6.00;;;;;20.07;52.67;99376.28;110015;1266;20008;-39
2023/03/07 03:22:28;;;;;;;;;6.00;6.00;;;;;20.06;52.67;99372.39;110022;1250;22209;-39
2023/03/07 03:24:55;;;;;;;;;7.00;7.00;;;;;20.06;52.66;99373.52;110018;1250;19577;-39
2023/03/07 03:27:22;;;;;;;;;4.00;4.00;;;;;20.07;52.69;99373.98;110030;1266;20009;-40
2023/03/07 03:29:50;;;;;;;;;6.00;6.00;;;;;20.06;52.55;99374.02;110025;1266;20714;-40
2023/03/07 03:32:17;;;;;;;;;4.00;4.00;;;;;20.06;52.54;99371.14;110028;1266;19504;-40
2023/03/07 03:34:45;;;;;;;;;7.00;7.00;;;;;20.07;52.64;99371.10;110048;1266;22973;-40
2023/03/07 03:37:12;;;;;;;;;3.33;3.33;;;;;20.06;52.61;99366.66;110046;1253;20777;-40
2023/03/07 03:39:40;;;;;;;;;6.00;6.00;;;;;20.06;52.64;99363.52;110029;1266;18422;-40
2023/03/07 03:42:07;;;;;;;;;6.00;4.00;;;;;20.06;52.58;99359.01;110019;1253;22191;-40
2023/03/07 03:44:35;;;;;;;;;6.00;6.00;;;;;20.07;52.52;99354.95;110020;1266;22291;-39
2023/03/07 03:47:03;;;;;;;;;7.00;6.00;;;;;20.06;52.56;99355.78;110029;1251;18865;-39
2023/03/07 03:49:30;;;;;;;;;4.00;4.00;;;;;20.05;52.47;99359.53;110010;1254;20101;-40
2023/03/07 03:51:57;;;;;;;;;6.00;6.00;;;;;20.05;52.42;99354.64;109904;1250;22970;-39
2023/03/07 03:54:25;;;;;;;;;6.50;6.00;;;;;20.05;52.54;99354.64;110003;1266;18443;-39
2023/03/07 03:56:52;;;;;;;;;7.00;6.00;;;;;20.05;52.44;99352.64;110015;1250;18646;-39
2023/03/07 03:59:21;;;;;;;;;3.50;3.50;;;;;20.05;52.29;99351.71;110025;1252;22525;-39
2023/03/07 04:01:48;;;;;;;;;6.00;6.00;;;;;20.05;52.07;99347.24;110035;1250;20552;-39
2023/03/07 04:04:15;;;;;;;;;4.00;4.00;;;;;20.06;52.21;99347.87;110021;1266;18620;-39
2023/03/07 04:06:43;;;;;;;;;6.00;6.00;;;;;20.05;52.18;99346.98;110006;1253;21771;-40
2023/03/07 04:09:10;;;;;;;;;7.00;6.50;;;;;20.05;51.99;99348.11;110050;1250;18244;-39
2023/03/07 04:11:38;;;;;;;;;4.00;4.00;;;;;20.05;52.12;99345.95;109992;1254;20045;-39
2023/03/07 04:14:05;;;;;;;;;4.00;4.00;;;;;20.05;52.11;99345.19;110010;1266;22235;-39
2023/03/07 04:16:33;;;;;;;;;7.00;6.00;;;;;20.05;52.31;99343.93;110018;1266;18223;-42
2023/03/07 04:19:00;;;;;;;;;7.00;6.50;;;;;20.05;52.07;99342.00;110030;1266;22579;-39
2023/03/07 04:21:27;;;;;;;;;4.67;3.67;;;;;20.04;52.20;99340.20;110031;1266;19366;-39
2023/03/07 04:23:57;;;;;;;;;5.00;5.00;;;;;20.04;52.03;99341.48;110022;1266;20197;-39
2023/03/07 04:26:24;;;;;;;;;6.50;5.00;;;;;20.04;52.07;99340.25;110021;1266;22726;-39
2023/03/07 04:28:52;;;;;;;;;4.00;4.00;;;;;20.05;52.10;99340.54;110037;1254;20838;-39
2023/03/07 04:31:19;;;;;;;;;7.50;6.00;;;;;20.04;52.03;99343.55;110029;1266;19544;-39
2023/03/07 04:33:47;;;;;;;;;6.00;6.00;;;;;20.04;52.10;99341.37;110023;1266;20007;-39
2023/03/07 04:36:16;;;;;;;;;6.00;4.00;;;;;20.04;51.92;99333.95;110055;1266;20763;-39
2023/03/07 04:38:43;;;;;;;;;8.00;6.00;;;;;20.03;51.80;99331.63;110078;1250;19595;-39
2023/03/07 04:41:11;;;;;;;;;6.00;6.00;;;;;20.04;51.81;99328.53;110048;1266;19971;-39
2023/03/07 04:43:38;;;;;;;;;6.00;4.00;;;;;20.02;51.90;99323.21;110050;1250;21037;-39
2023/03/07 04:46:06;;;;;;;;;7.00;6.00;;;;;20.02;51.98;99328.31;110029;1266;20027;-39
2023/03/07 04:48:33;;;;;;;;;6.00;6.00;;;;;20.02;51.82;99324.55;110035;1251;19950;-39
2023/03/07 04:51:01;;;;;;;;;6.00;6.00;;;;;20.03;51.95;99314.80;110029;1266;19384;-39
2023/03/07 04:53:28;;;;;;;;;7.00;6.00;;;;;20.03;51.84;99313.04;110033;1266;22223;-40
2023/03/07 04:55:55;;;;;;;;;7.00;7.00;;;;;20.02;51.82;99311.83;110028;1266;20111;-40
2023/03/07 04:58:23;;;;;;;;;6.00;4.00;;;;;20.01;51.80;99317.52;110024;1266;19414;-41
2023/03/07 05:00:50;;;;;;;;;6.00;6.00;;;;;20.02;51.81;99316.23;110006;1253;22851;-40
2023/03/07 05:03:18;;;;;;;;;4.00;4.00;;;;;20.01;51.71;99311.95;109988;1266;18646;-39
2023/03/07 05:05:45;;;;;;;;;4.00;4.00;;;;;20.02;51.71;99308.36;110004;1254;20737;-40
2023/03/07 05:08:13;;;;;;;;;6.00;4.00;;;;;20.02;51.69;99306.40;109998;1252;20887;-40
2023/03/07 05:10:40;;;;;;;;;6.00;6.00;;;;;20.01;51.55;99302.71;110030;1266;20046;-37
2023/03/07 05:13:08;;;;;;;;;4.00;4.00;;;;;20.01;51.64;99298.11;109993;1253;22443;-40
2023/03/07 05:15:35;;;;;;;;;5.33;4.00;;;;;20.01;51.63;99287.27;110004;1250;18448;-41
2023/03/07 05:18:03;;;;;;;;;7.00;7.00;;;;;20.00;51.54;99284.84;110017;1266;20051;-39
2023/03/07 05:20:30;;;;;;;;;9.00;6.00;;;;;20.01;51.61;99282.59;110030;1251;20788;-39
2023/03/07 05:22:57;;;;;;;;;4.00;4.00;;;;;20.01;51.51;99285.47;110049;1250;19582;-39
2023/03/07 05:25:25;;;;;;;;;5.00;5.00;;;;;20.01;51.47;99281.29;110040;1266;20170;-39
2023/03/07 05:27:52;;;;;;;;;4.00;4.00;;;;;20.01;51.35;99282.38;110012;1259;20670;-40
2023/03/07 05:30:21;;;;;;;;;4.00;4.00;;;;;20.00;51.27;99279.41;110022;1254;19631;-40
2023/03/07 05:32:50;;;;;;;;;7.00;7.00;;;;;20.01;51.44;99283.17;110140;1250;19930;-40
2023/03/07 05:35:17;;;;;;;;;4.00;4.00;;;;;20.00;51.33;99275.61;110005;1253;23842;-40
2023/03/07 05:37:45;;;;;;;;;4.67;4.00;;;;;20.01;51.15;99275.56;110038;1266;18605;-40
2023/03/07 05:40:13;;;;;;;;;10.00;6.00;;;;;20.00;51.26;99260.42;110028;1266;19289;-40
2023/03/07 05:42:40;;;;;;;;;4.00;4.00;;;;;20.00;51.40;99261.09;110041;1266;19375;-40
2023/03/07 05:45:07;;;;;;;;;4.00;4.00;;;;;20.00;51.29;99256.48;110041;1266;22047;-41
2023/03/07 05:47:35;;;;;;;;;7.00;6.00;;;;;20.00;51.23;99256.02;110038;1260;20033;-40
2023/03/07 05:50:02;;;;;;;;;7.00;6.50;;;;;20.00;51.34;99254.85;110028;1266;19333;-40
2023/03/07 05:52:30;;;;;;;;;5.00;4.00;;;;;20.00;51.20;99246.66;110025;1254;19662;-39
2023/03/07 05:54:57;;;;;;;;;6.00;4.67;;;;;20.00;51.26;99239.20;110036;1266;19988;-39
2023/03/07 05:57:25;;;;;;;;;4.00;4.00;;;;;20.00;51.21;99232.31;110018;1266;20356;-39
2023/03/07 05:59:52;;;;;;;;;;;;;;;20.02;51.19;99220.08;109929;1250;20953;-40
2023/03/07 06:02:19;;;;;;;;;6.33;5.33;;;;;20.04;51.07;99217.94;110045;1266;19551;-40
2023/03/07 06:04:47;;;;;;;;;6.50;6.00;;;;;20.03;51.35;99206.80;110037;1266;19684;-39
2023/03/07 06:07:14;;;;;;;;;6.00;4.00;;;;;20.04;51.33;99206.65;110041;1250;22303;-39
2023/03/07 06:09:42;;;;;;;;;7.00;6.00;;;;;20.07;51.37;99202.25;110032;1266;19114;-39
2023/03/07 06:12:09;;;;;;;;;4.00;4.00;;;;;20.09;51.50;99201.34;110042;1250;20774;-39
2023/03/07 06:14:37;;;;;;;;;4.00;4.00;;;;;20.10;51.42;99194.69;110046;1266;18436;-39
2023/03/07 06:17:04;;;;;;;;;4.00;4.00;;;;;20.11;52.00;99195.48;109920;1266;18629;-39
2023/03/07 06:19:32;;;;;;;;;4.00;4.00;;;;;20.11;52.32;99191.34;109976;1266;19480;-38
2023/03/07 06:22:00;;;;;;;;;5.00;5.00;;;;;20.11;52.25;99187.17;110061;1254;22325;-38
2023/03/07 06:24:27;;;;;;;;;6.00;6.00;;;;;20.11;52.55;99188.08;110040;1253;20481;-39
2023/03/07 06:26:55;;;;;;;;;6.00;4.00;;;;;20.12;52.35;99189.04;110042;1266;20883;-39
2023/03/07 06:29:22;;;;;;;;;6.00;6.00;;;;;20.14;52.32;99193.92;110045;1266;18663;-39
2023/03/07 06:31:50;;;;;;;;;84.00;67.00;;;;;20.16;52.54;99191.03;110027;1266;21521;-39
2023/03/07 06:34:18;;;;;;;;;78.50;63.00;;;;;20.16;52.56;99182.05;110110;1250;20796;-39
2023/03/07 06:36:47;;;;;;;;;93.00;75.00;;;;;20.14;52.56;99180.41;110008;1254;20003;-39
2023/03/07 06:39:19;;;;;;;;;94.00;75.00;;;;;20.15;53.07;99182.29;110049;1250;18703;-39
2023/03/07 06:41:47;;;;;;;;;90.00;70.00;;;;;20.16;53.31;99186.14;110100;1250;21059;-39
2023/03/07 06:44:14;;;;;;;;;78.00;64.00;;;;;20.15;53.45;99188.20;110062;1251;22074;-38
2023/03/07 06:46:42;;;;;;;;;73.00;58.00;;;;;20.16;53.09;99183.98;109936;1266;18836;-39
2023/03/07 06:49:09;;;;;;;;;69.50;52.50;;;;;20.15;53.35;99184.55;110013;1266;21824;-39
2023/03/07 06:51:37;;;;;;;;;55.00;47.00;;;;;20.14;53.20;99185.44;109944;1253;19995;-39
2023/03/07 06:54:04;;;;;;;;;44.00;43.00;;;;;20.13;53.17;99185.55;110008;1266;18878;-39
2023/03/07 06:56:33;;;;;;;;;52.00;45.00;;;;;20.14;53.15;99183.30;110012;1266;22406;-38
2023/03/07 06:59:00;;;;;;;;;42.00;39.00;;;;;20.17;52.88;99184.77;110014;1266;18943;-38
2023/03/07 07:01:28;;;;;;;;;39.00;36.00;;;;;20.18;52.86;99180.95;110009;1254;20825;-38
2023/03/07 07:03:55;;;;;;;;;38.50;35.50;;;;;20.20;52.50;99182.36;110034;1250;20693;-38
2023/03/07 07:06:22;;;;;;;;;33.00;30.00;;;;;20.19;51.89;99179.91;110025;1266;20223;-38
2023/03/07 07:08:50;;;;;;;;;24.00;24.00;;;;;20.18;51.89;99178.15;110039;1266;18760;-38
2023/03/07 07:11:17;;;;;;;;;28.00;24.00;;;;;20.16;52.12;99180.65;109995;1266;20691;-38
2023/03/07 07:13:45;;;;;;;;;24.00;22.00;;;;;20.14;52.08;99176.02;110012;1266;18767;-38
2023/03/07 07:16:12;;;;;;;;;27.50;24.00;;;;;20.13;52.35;99171.96;110005;1261;20107;-38
2023/03/07 07:18:40;;;;;;;;;26.00;21.50;;;;;20.12;52.44;99167.73;110035;1260;19431;-37
2023/03/07 07:21:07;;;;;;;;;24.50;22.00;;;;;20.12;52.27;99155.11;110057;1266;18520;-38
2023/03/07 07:23:35;;;;;;;;;24.00;22.00;;;;;20.11;52.43;99149.96;110023;1252;20170;-39
2023/03/07 07:26:02;;;;;;;;;22.00;22.00;;;;;20.11;52.35;99147.62;110041;1254;21971;-38
2023/03/07 07:28:30;;;;;;;;;22.00;19.00;;;;;20.10;52.34;99140.13;110042;1250;21281;-39
2023/03/07 07:30:57;;;;;;;;;18.00;16.00;;;;;20.10;52.36;99136.48;110023;1266;20045;-38
2023/03/07 07:33:24;;;;;;;;;16.00;15.00;;;;;20.10;52.26;99137.73;110031;1266;20628;-38
2023/03/07 07:35:52;;;;;;;;;16.00;15.50;;;;;20.10;52.38;99140.00;110020;1266;18782;-39
2023/03/07 07:38:19;;;;;;;;;14.50;14.00;;;;;20.10;52.21;99128.06;110046;1253;20091;-39
2023/03/07 07:40:47;;;;;;;;;15.33;13.00;;;;;20.09;52.11;99118.66;109914;1250;22374;-39
2023/03/07 07:43:14;;;;;;;;;13.00;12.33;;;;;20.09;52.03;99110.41;110033;1266;19905;-39
2023/03/07 07:45:42;;;;;;;;;16.00;13.00;;;;;20.08;51.84;99117.52;110025;1251;21232;-39
2023/03/07 07:48:09;;;;;;;;;16.00;13.00;;;;;20.09;52.09;99117.94;110044;1266;19370;-38
2023/03/07 07:50:37;;;;;;;;;15.00;13.00;;;;;20.09;51.80;99111.84;110004;1250;21619;-39
2023/03/07 07:53:04;;;;;;;;;16.00;15.00;;;;;20.08;51.85;99104.47;110057;1266;22466;-39
2023/03/07 07:55:32;;;;;;;;;12.00;12.00;;;;;20.09;51.59;99091.59;110030;1266;19561;-38
2023/03/07 07:57:59;;;;;;;;;12.00;11.33;;;;;20.11;51.51;99082.59;109923;1266;18530;-38
2023/03/07 08:00:27;;;;;;;;;15.50;15.50;;;;;20.11;51.46;99091.21;109935;1251;21519;-38
2023/03/07 08:02:54;;;;;;;;;14.00;13.50;;;;;20.14;51.31;99083.00;110055;1250;20835;-38
2023/03/07 08:05:21;;;;;;;;;12.00;10.00;;;;;20.20;51.51;99083.45;110002;1266;19319;-38
2023/03/07 08:07:50;;;;;;;;;12.00;12.00;;;;;20.20;51.70;99082.14;109993;1266;20231;-38
2023/03/07 08:10:17;;;;;;;;;9.00;9.00;;;;;20.20;51.85;99085.12;110007;1254;20749;-38
2023/03/07 08:12:45;;;;;;;;;16.00;15.00;;;;;20.19;51.94;99082.32;110022;1266;19903;-38
2023/03/07 08:15:12;;;;;;;;;14.00;12.00;;;;;20.19;51.98;99075.83;110031;1266;22220;-38
2023/03/07 08:17:40;;;;;;;;;10.00;10.00;;;;;20.20;51.90;99069.97;110006;1266;22306;-37
2023/03/07 08:20:08;;;;;;;;;12.00;10.00;;;;;20.20;52.27;99059.33;109983;1253;18468;-38
2023/03/07 08:22:36;;;;;;;;;11.00;10.00;;;;;20.19;52.25;99053.86;109998;1266;21359;-38
2023/03/07 08:25:03;;;;;;;;;13.00;10.00;;;;;20.20;52.05;99058.80;109900;1266;174563;-37
2023/03/07 08:27:31;;;;;;;;;12.50;10.00;;;;;20.20;52.32;99047.83;110022;1252;20000;-37
2023/03/07 08:29:58;;;;;;;;;12.00;9.00;;;;;20.20;52.35;99047.40;110042;1266;22803;-37
2023/03/07 08:32:25;;;;;;;;;13.00;12.00;;;;;20.18;52.04;99042.85;110064;1266;20737;-37
2023/03/07 08:34:53;;;;;;;;;12.00;10.00;;;;;20.18;51.64;99039.47;110003;1266;18601;-38
2023/03/07 08:37:21;;;;;;;;;13.00;12.00;;;;;20.18;51.34;99032.40;110006;1266;18741;-38
2023/03/07 08:39:48;;;;;;;;;10.00;10.00;;;;;20.18;51.21;99038.38;109991;1250;19551;-38
2023/03/07 08:42:15;;;;;;;;;12.00;9.50;;;;;20.17;51.43;99029.44;109974;1254;21216;-38
2023/03/07 08:44:43;;;;;;;;;9.00;7.00;;;;;20.16;51.44;99017.84;109933;1266;20005;-38
2023/03/07 08:47:12;;;;;;;;;9.00;9.00;;;;;20.15;51.51;99012.10;109996;1250;20699;-37
2023/03/07 08:49:39;;;;;;;;;9.00;7.00;;;;;20.15;51.58;99005.79;110044;1250;22927;-40
2023/03/07 08:52:07;;;;;;;;;10.00;10.00;;;;;20.15;51.35;98995.12;110031;1266;20004;-39
2023/03/07 08:54:34;;;;;;;;;12.00;12.00;;;;;20.15;51.25;99000.35;110032;1266;19733;-38
2023/03/07 08:57:02;;;;;;;;;10.00;10.00;;;;;20.15;51.40;98991.73;110028;1266;18593;-38
2023/03/07 08:59:29;;;;;;;;;9.00;9.00;;;;;20.13;51.04;98983.95;110022;1266;20188;-39
2023/03/07 09:01:57;;;;;;;;;9.00;7.00;;;;;20.15;50.88;98973.52;110055;1266;19387;-39
2023/03/07 09:04:24;;;;;;;;;9.00;9.00;;;;;20.16;50.98;98964.86;110052;1250;19718;-39
2023/03/07 09:06:52;;;;;;;;;13.00;13.00;;;;;20.16;51.06;98964.48;110030;1266;19033;-39
2023/03/07 09:09:19;;;;;;;;;12.00;9.00;;;;;20.18;50.73;98947.37;110038;1250;22083;-40
2023/03/07 09:11:47;;;;;;;;;9.00;9.00;;;;;20.19;50.74;98950.99;110013;1266;19950;-39
2023/03/07 09:14:14;;;;;;;;;18.00;15.00;;;;;20.21;51.18;98952.58;110029;1266;18531;-39
2023/03/07 09:16:42;;;;;;;;;10.00;9.00;;;;;20.24;51.26;98952.15;110001;1266;19373;-39
2023/03/07 09:19:09;;;;;;;;;9.00;9.00;;;;;20.23;51.88;98948.64;109994;1259;18863;-40
2023/03/07 09:21:37;;;;;;;;;10.00;9.00;;;;;20.23;52.02;98945.72;110027;1260;20676;-39
2023/03/07 09:24:04;;;;;;;;;7.00;7.00;;;;;20.23;52.17;98941.78;110002;1266;19357;-39
2023/03/07 09:26:32;;;;;;;;;9.00;7.00;;;;;20.24;52.18;98947.47;110025;1266;20001;-39
2023/03/07 09:28:59;;;;;;;;;7.00;7.00;;;;;20.24;52.28;98945.58;110032;1266;18597;-39
2023/03/07 09:31:26;;;;;;;;;9.00;9.00;;;;;20.25;52.01;98946.92;110018;1260;22844;-39
2023/03/07 09:33:54;;;;;;;;;7.00;7.00;;;;;20.25;52.07;98936.79;110016;1253;19654;-39
2023/03/07 09:36:21;;;;;;;;;12.50;10.00;;;;;20.25;52.06;98931.26;110005;1250;18627;-39
2023/03/07 09:38:49;;;;;;;;;8.00;8.00;;;;;20.25;51.89;98920.38;109998;1266;20707;-39
2023/03/07 09:41:16;;;;;;;;;9.00;7.00;;;;;20.24;51.71;98913.48;110016;1266;20048;-39
2023/03/07 09:43:43;;;;;;;;;10.00;9.00;;;;;20.23;52.04;98923.83;109990;1266;20172;-39
2023/03/07 09:46:11;;;;;;;;;9.50;9.50;;;;;20.23;51.96;98918.23;110030;1253;22227;-39
2023/03/07 09:48:38;;;;;;;;;10.00;10.00;;;;;20.23;51.71;98911.61;110016;1250;20059;-39
2023/03/07 09:51:06;;;;;;;;;9.00;7.00;;;;;20.25;51.85;98911.84;110035;1266;20036;-39
2023/03/07 09:53:33;;;;;;;;;6.33;6.00;;;;;20.29;52.04;98907.56;110013;1266;19511;-39
2023/03/07 09:56:01;;;;;;;;;9.00;9.00;;;;;20.31;52.40;98905.23;110015;1266;19578;-39
2023/03/07 09:58:28;;;;;;;;;10.00;7.00;;;;;20.33;52.57;98901.64;110041;1250;22219;-39
2023/03/07 10:00:56;;;;;;;;;8.00;7.00;;;;;20.32;52.44;98894.80;110018;1266;19410;-39
2023/03/07 10:03:23;;;;;;;;;7.00;7.00;;;;;20.33;52.58;98891.20;110048;1266;21283;-40
2023/03/07 10:05:51;;;;;;;;;9.50;9.50;;;;;20.34;53.05;98888.85;110031;1252;20043;-39
2023/03/07 10:08:18;;;;;;;;;4.00;4.00;;;;;20.32;52.88;98887.69;110010;1266;22143;-38
2023/03/07 10:10:45;;;;;;;;;8.00;6.00;;;;;20.32;53.01;98882.46;110044;1250;19553;-39
2023/03/07 10:13:14;;;;;;;;;7.00;6.67;;;;;20.30;52.98;98879.08;110057;1266;22154;-38
2023/03/07 10:15:44;;;;;;;;;8.00;6.50;;;;;20.32;53.29;98878.15;110058;1266;19373;-39
2023/03/07 10:18:11;;;;;;;;;7.00;7.00;;;;;20.31;53.27;98873.60;110003;1250;22850;-38
2023/03/07 10:20:39;;;;;;;;;5.00;5.00;;;;;20.30;53.70;98873.44;110030;1266;19976;-39
2023/03/07 10:23:06;;;;;;;;;9.00;9.00;;;;;20.32;53.82;98865.59;110011;1250;20819;-38
2023/03/07 10:25:34;;;;;;;;;5.00;5.00;;;;;20.32;53.72;98859.02;110033;1250;19618;-39
2023/03/07 10:28:01;;;;;;;;;5.00;5.00;;;;;20.32;53.69;98857.27;110044;1253;20300;-38
2023/03/07 10:30:30;;;;;;;;;6.00;6.00;;;;;20.32;53.69;98850.95;110043;1264;20760;-38
2023/03/07 10:32:57;;;;;;;;;9.00;7.00;;;;;20.32;53.61;98844.80;110000;1266;20030;-38
2023/03/07 10:35:25;;;;;;;;;7.00;7.00;;;;;20.30;53.19;98847.52;109993;1266;18968;-38
2023/03/07 10:37:52;;;;;;;;;9.50;9.00;;;;;20.28;52.89;98845.34;109928;1254;20842;-38
2023/03/07 10:40:20;;;;;;;;;10.00;7.00;;;;;20.28;52.85;98841.60;109899;1266;18468;-39
2023/03/07 10:42:47;;;;;;;;;12.00;10.00;;;;;20.28;52.55;98829.71;109919;1266;19997;-39
2023/03/07 10:45:15;;;;;;;;;7.00;7.00;;;;;20.29;52.49;98829.59;109926;1260;21571;-38
2023/03/07 10:47:42;;;;;;;;;4.00;4.00;;;;;20.30;52.77;98829.25;109937;1266;20283;-38
2023/03/07 10:50:10;;;;;;;;;7.00;7.00;;;;;20.30;52.67;98822.34;109942;1260;18684;-39
2023/03/07 10:52:37;;;;;;;;;9.00;7.00;;;;;20.31;52.73;98816.21;110064;1250;20682;-39
2023/03/07 10:55:04;;;;;;;;;9.00;7.00;;;;;20.31;52.78;98810.66;110072;1254;20564;-39
2023/03/07 10:57:32;;;;;;;;;7.00;7.00;;;;;20.33;52.50;98801.84;110034;1266;20154;-39
2023/03/07 10:59:59;;;;;;;;;11.00;8.00;;;;;20.35;52.61;98801.16;110000;1259;22039;-39
2023/03/07 11:02:27;;;;;;;;;5.00;5.00;;;;;20.34;52.64;98787.98;110014;1266;19505;-39
2023/03/07 11:04:54;;;;;;;;;12.00;10.00;;;;;20.36;52.74;98780.57;109999;1266;18676;-39
2023/03/07 11:07:22;;;;;;;;;10.00;9.00;;;;;20.36;52.87;98774.59;110042;1266;19436;-38
2023/03/07 11:09:49;;;;;;;;;7.00;7.00;;;;;20.35;52.69;98771.41;109985;1266;18600;-39
2023/03/07 11:12:16;;;;;;;;;6.00;6.00;;;;;20.35;52.86;98766.35;109933;1266;20033;-39
2023/03/07 11:14:44;;;;;;;;;6.00;6.00;;;;;20.35;52.86;98764.50;109989;1266;20620;-38
2023/03/07 11:17:11;;;;;;;;;5.00;5.00;;;;;20.37;52.70;98759.16;110050;1266;18537;-38
2023/03/07 11:19:39;;;;;;;;;6.50;6.00;;;;;20.35;52.89;98757.30;110013;1266;23375;-38
2023/03/07 11:22:06;;;;;;;;;6.00;6.00;;;;;20.33;52.94;98750.54;110012;1266;20861;-39